AMX37 MMMX-LEBL
Flight info
| Callsign | AMX37 |
|---|---|
| Flight time | N/A |
| Altitude | 33000 |
| Route | NOXOS3A NOXOS UT106 COFRE UM580 IRDOV M580 MINOW DCT LAL/N0502F350 DCT HOBEE M202 LENDS DCT UKOKA/M085F350 DCT BEXUM M204 LUNKR DCT 38N060W 42N050W 4330N04000W/M085F370 4330N03000W 43N020W DCT BANAL/N0489F370 DCT RIVRO/N0498F310 DCT BARDI/N0495F320 M191 DIPOL DCT RBO DCT PINAR DCT SEGRE DCT BRITO DCT PISUS/N0501F300 DCT PONEN T600 CASPE |
| Aircraft | B789/H-SDE1E2E3FGHIJ2J3J4J5M1RWXY/LB1D1 |
Departure
| Time | 2026-05-06 06:51 |
|---|---|
| Airport | Mexico City Benito Juárez International Airport (MMMX) |
Arrival
| Time | N/A |
|---|---|
| Airport | Josep Tarradellas Barcelona-El Prat Airport (LEBL) |
| Time | Latitude | Longitude | Altitude | Speed | Heading |
|---|---|---|---|---|---|
| 2026-05-06 05:48 | 19.42243 | -99.08138 | 7308 ft | 0 kts | 123° |
| 2026-05-06 06:27 | 19.42244 | -99.08139 | 7308 ft | 2 kts | 123° |
| 2026-05-06 06:27 | 19.42253 | -99.08154 | 7308 ft | 3 kts | 111° |
| 2026-05-06 06:27 | 19.42257 | -99.08174 | 7308 ft | 3 kts | 91° |
| 2026-05-06 06:28 | 19.42255 | -99.08195 | 7308 ft | 3 kts | 71° |
| 2026-05-06 06:28 | 19.42246 | -99.08213 | 7308 ft | 3 kts | 50° |
| 2026-05-06 06:28 | 19.42244 | -99.08216 | 7308 ft | 0 kts | 46° |
| 2026-05-06 06:31 | 19.42249 | -99.08212 | 7308 ft | 2 kts | 36° |
| 2026-05-06 06:32 | 19.42273 | -99.08206 | 7308 ft | 5 kts | 11° |
| 2026-05-06 06:32 | 19.42321 | -99.08204 | 7308 ft | 8 kts | 352° |
| 2026-05-06 06:32 | 19.42386 | -99.08211 | 7308 ft | 11 kts | 342° |
| 2026-05-06 06:32 | 19.42470 | -99.08256 | 7308 ft | 15 kts | 331° |
| 2026-05-06 06:33 | 19.42561 | -99.08328 | 7308 ft | 16 kts | 302° |
| 2026-05-06 06:33 | 19.42602 | -99.08428 | 7308 ft | 14 kts | 293° |
| 2026-05-06 06:33 | 19.42620 | -99.08472 | 7308 ft | 0 kts | 293° |
| 2026-05-06 06:39 | 19.42623 | -99.08479 | 7308 ft | 2 kts | 294° |
| 2026-05-06 06:40 | 19.42635 | -99.08509 | 7308 ft | 6 kts | 292° |
| 2026-05-06 06:40 | 19.42657 | -99.08566 | 7308 ft | 9 kts | 293° |
| 2026-05-06 06:40 | 19.42670 | -99.08588 | 7309 ft | 0 kts | 320° |
| 2026-05-06 06:41 | 19.42691 | -99.08590 | 7309 ft | 5 kts | 19° |
| 2026-05-06 06:41 | 19.42714 | -99.08560 | 7309 ft | 6 kts | 52° |
| 2026-05-06 06:41 | 19.42723 | -99.08543 | 7309 ft | 0 kts | 59° |
| 2026-05-06 06:49 | 19.42737 | -99.08519 | 7309 ft | 21 kts | 59° |
| 2026-05-06 06:49 | 19.42830 | -99.08351 | 7308 ft | 56 kts | 59° |
| 2026-05-06 06:49 | 19.43111 | -99.07854 | 7309 ft | 102 kts | 59° |
| 2026-05-06 06:50 | 19.43540 | -99.07087 | 7308 ft | 141 kts | 59° |
| 2026-05-06 06:50 | 19.44101 | -99.06087 | 7306 ft | 173 kts | 59° |
| 2026-05-06 06:50 | 19.44739 | -99.04943 | 7572 ft | 175 kts | 58° |
| 2026-05-06 06:50 | 19.45355 | -99.03823 | 7784 ft | 178 kts | 59° |
| 2026-05-06 06:51 | 19.46016 | -99.02676 | 7779 ft | 190 kts | 55° |
| 2026-05-06 06:51 | 19.46836 | -99.01519 | 7824 ft | 201 kts | 52° |
| 2026-05-06 06:51 | 19.47625 | -99.00287 | 8213 ft | 202 kts | 56° |
| 2026-05-06 06:51 | 19.48354 | -98.99030 | 8647 ft | 203 kts | 57° |
| 2026-05-06 06:52 | 19.49101 | -98.97748 | 8871 ft | 206 kts | 57° |
| 2026-05-06 06:52 | 19.49804 | -98.96373 | 8868 ft | 217 kts | 60° |
| 2026-05-06 06:52 | 19.50627 | -98.94980 | 8881 ft | 227 kts | 56° |
| 2026-05-06 06:52 | 19.51496 | -98.93517 | 8864 ft | 243 kts | 58° |
| 2026-05-06 06:53 | 19.52381 | -98.91930 | 8908 ft | 257 kts | 59° |
| 2026-05-06 06:53 | 19.53274 | -98.90226 | 8951 ft | 271 kts | 64° |
| 2026-05-06 06:53 | 19.53836 | -98.88254 | 8982 ft | 287 kts | 75° |
| 2026-05-06 06:53 | 19.54351 | -98.86156 | 9147 ft | 297 kts | 75° |
| 2026-05-06 06:54 | 19.54896 | -98.84070 | 9662 ft | 297 kts | 75° |
| 2026-05-06 06:54 | 19.55465 | -98.81955 | 10150 ft | 299 kts | 75° |
| 2026-05-06 06:54 | 19.56030 | -98.79823 | 10630 ft | 301 kts | 75° |
| 2026-05-06 06:54 | 19.56590 | -98.77681 | 11120 ft | 302 kts | 75° |
| 2026-05-06 06:55 | 19.57153 | -98.75529 | 11601 ft | 303 kts | 75° |
| 2026-05-06 06:55 | 19.57718 | -98.73371 | 12099 ft | 304 kts | 76° |
| 2026-05-06 06:55 | 19.58102 | -98.71146 | 12334 ft | 314 kts | 81° |
| 2026-05-06 06:55 | 19.58517 | -98.68812 | 12441 ft | 330 kts | 79° |
| 2026-05-06 06:56 | 19.58978 | -98.66372 | 12568 ft | 345 kts | 79° |
| 2026-05-06 06:56 | 19.59427 | -98.63818 | 12725 ft | 359 kts | 80° |
| 2026-05-06 06:56 | 19.59871 | -98.61190 | 12940 ft | 370 kts | 80° |
| 2026-05-06 06:56 | 19.60337 | -98.58491 | 13396 ft | 374 kts | 79° |
| 2026-05-06 06:57 | 19.60817 | -98.55776 | 13885 ft | 376 kts | 79° |
| 2026-05-06 06:57 | 19.61296 | -98.53040 | 14338 ft | 379 kts | 79° |
| 2026-05-06 06:57 | 19.61608 | -98.50259 | 14697 ft | 383 kts | 90° |
| 2026-05-06 06:57 | 19.61528 | -98.47433 | 15179 ft | 384 kts | 92° |
| 2026-05-06 06:58 | 19.61407 | -98.44592 | 15642 ft | 386 kts | 92° |
| 2026-05-06 06:58 | 19.61330 | -98.41738 | 16092 ft | 388 kts | 91° |
| 2026-05-06 06:58 | 19.61283 | -98.38864 | 16546 ft | 391 kts | 91° |
| 2026-05-06 06:58 | 19.61213 | -98.35970 | 16999 ft | 393 kts | 91° |
| 2026-05-06 06:59 | 19.61165 | -98.34404 | 17238 ft | 394 kts | 92° |
| 2026-05-06 07:46 | 19.61139 | -98.33584 | 17237 ft | 395 kts | 92° |
| 2026-05-06 07:46 | 19.61071 | -98.31326 | 17565 ft | 397 kts | 91° |
| 2026-05-06 08:07 | 19.61021 | -98.29467 | 17807 ft | 398 kts | 91° |
| 2026-05-06 08:07 | 19.60948 | -98.26521 | 18242 ft | 400 kts | 91° |
| 2026-05-06 08:07 | 19.60870 | -98.23555 | 18611 ft | 403 kts | 92° |
| 2026-05-06 08:08 | 19.60785 | -98.20571 | 18987 ft | 405 kts | 92° |
| 2026-05-06 08:08 | 19.60701 | -98.17574 | 19350 ft | 408 kts | 92° |
| 2026-05-06 08:08 | 19.60618 | -98.14555 | 19701 ft | 410 kts | 92° |
| 2026-05-06 08:08 | 19.60535 | -98.11517 | 20063 ft | 413 kts | 92° |
| 2026-05-06 08:09 | 19.60450 | -98.08502 | 20408 ft | 415 kts | 93° |
| 2026-05-06 08:09 | 19.60363 | -98.05427 | 20752 ft | 418 kts | 93° |
| 2026-05-06 08:09 | 19.60312 | -98.02335 | 21069 ft | 421 kts | 89° |
| 2026-05-06 08:09 | 19.60815 | -97.99247 | 21348 ft | 427 kts | 75° |
| 2026-05-06 08:10 | 19.61863 | -97.96281 | 21697 ft | 430 kts | 70° |
| 2026-05-06 08:10 | 19.62974 | -97.93324 | 22020 ft | 433 kts | 70° |
| 2026-05-06 08:10 | 19.64074 | -97.90340 | 22328 ft | 435 kts | 71° |
| 2026-05-06 08:10 | 19.65160 | -97.87324 | 22647 ft | 438 kts | 71° |
| 2026-05-06 08:11 | 19.66257 | -97.84294 | 22953 ft | 441 kts | 71° |
| 2026-05-06 08:11 | 19.67357 | -97.81297 | 23247 ft | 444 kts | 71° |
| 2026-05-06 08:11 | 19.68482 | -97.78230 | 23544 ft | 446 kts | 71° |
| 2026-05-06 08:11 | 19.69602 | -97.75147 | 23813 ft | 448 kts | 71° |
| 2026-05-06 08:12 | 19.70727 | -97.72046 | 24073 ft | 450 kts | 71° |
| 2026-05-06 08:12 | 19.71860 | -97.68933 | 24331 ft | 452 kts | 71° |
| 2026-05-06 08:12 | 19.72997 | -97.65815 | 24584 ft | 454 kts | 71° |
| 2026-05-06 08:12 | 19.74139 | -97.62672 | 24833 ft | 456 kts | 71° |
| 2026-05-06 08:13 | 19.75281 | -97.59524 | 25072 ft | 458 kts | 71° |
| 2026-05-06 08:13 | 19.76429 | -97.56358 | 25330 ft | 460 kts | 71° |
| 2026-05-06 08:13 | 19.77582 | -97.53183 | 25570 ft | 462 kts | 71° |
| 2026-05-06 08:13 | 19.78739 | -97.49992 | 25794 ft | 464 kts | 71° |
| 2026-05-06 08:14 | 19.79888 | -97.46819 | 26021 ft | 466 kts | 71° |
| 2026-05-06 08:14 | 19.81055 | -97.43594 | 26280 ft | 468 kts | 71° |
| 2026-05-06 08:14 | 19.82225 | -97.40360 | 26515 ft | 470 kts | 71° |
| 2026-05-06 08:14 | 19.83388 | -97.37146 | 26765 ft | 472 kts | 71° |
| 2026-05-06 08:15 | 19.84565 | -97.33888 | 27001 ft | 474 kts | 71° |
| 2026-05-06 08:15 | 19.85749 | -97.30609 | 27233 ft | 476 kts | 71° |
| 2026-05-06 08:15 | 19.86941 | -97.27307 | 27457 ft | 478 kts | 71° |
| 2026-05-06 08:15 | 19.88135 | -97.24001 | 27697 ft | 480 kts | 71° |
| 2026-05-06 08:16 | 19.89315 | -97.20726 | 27925 ft | 482 kts | 71° |
| 2026-05-06 08:16 | 19.90516 | -97.17393 | 28143 ft | 484 kts | 71° |
| 2026-05-06 08:16 | 19.91722 | -97.14045 | 28345 ft | 486 kts | 71° |
| 2026-05-06 08:16 | 19.92934 | -97.10678 | 28576 ft | 488 kts | 71° |
| 2026-05-06 08:17 | 19.94150 | -97.07296 | 28786 ft | 490 kts | 71° |
| 2026-05-06 08:17 | 19.95370 | -97.03899 | 29007 ft | 492 kts | 71° |
| 2026-05-06 08:17 | 19.96594 | -97.00492 | 29217 ft | 494 kts | 71° |
| 2026-05-06 08:17 | 19.97825 | -96.97062 | 29420 ft | 496 kts | 71° |
| 2026-05-06 08:18 | 19.99056 | -96.93630 | 29644 ft | 498 kts | 71° |
| 2026-05-06 08:18 | 20.00292 | -96.90180 | 29846 ft | 500 kts | 71° |
| 2026-05-06 08:18 | 20.01518 | -96.86757 | 30018 ft | 502 kts | 71° |
| 2026-05-06 08:18 | 20.02764 | -96.83276 | 30222 ft | 504 kts | 71° |
| 2026-05-06 08:19 | 20.04015 | -96.79776 | 30400 ft | 506 kts | 71° |
| 2026-05-06 08:19 | 20.05268 | -96.76272 | 30601 ft | 507 kts | 70° |
| 2026-05-06 08:19 | 20.06520 | -96.72766 | 30787 ft | 509 kts | 70° |
| 2026-05-06 08:19 | 20.07778 | -96.69240 | 30974 ft | 510 kts | 70° |
| 2026-05-06 08:20 | 20.09038 | -96.65707 | 31171 ft | 512 kts | 70° |
| 2026-05-06 08:20 | 20.10300 | -96.62165 | 31346 ft | 513 kts | 70° |
| 2026-05-06 08:20 | 20.11571 | -96.58596 | 31518 ft | 515 kts | 70° |
| 2026-05-06 08:20 | 20.12845 | -96.55016 | 31670 ft | 517 kts | 70° |
| 2026-05-06 08:21 | 20.14108 | -96.51462 | 31830 ft | 519 kts | 70° |
| 2026-05-06 08:21 | 20.15392 | -96.47850 | 31980 ft | 522 kts | 70° |
| 2026-05-06 08:21 | 20.16677 | -96.44231 | 32133 ft | 524 kts | 70° |
| 2026-05-06 08:21 | 20.17966 | -96.40598 | 32283 ft | 526 kts | 70° |
| 2026-05-06 08:22 | 20.19263 | -96.36938 | 32460 ft | 528 kts | 70° |
| 2026-05-06 08:22 | 20.20560 | -96.33277 | 32651 ft | 529 kts | 70° |
| 2026-05-06 08:22 | 20.21859 | -96.29608 | 32756 ft | 531 kts | 70° |
| 2026-05-06 08:22 | 20.23161 | -96.25926 | 32757 ft | 530 kts | 70° |
| 2026-05-06 08:23 | 20.25734 | -96.18646 | 32772 ft | 526 kts | 70° |
| 2026-05-06 08:23 | 20.28305 | -96.11353 | 32775 ft | 525 kts | 70° |
| 2026-05-06 08:24 | 20.30875 | -96.04073 | 32783 ft | 524 kts | 70° |
| 2026-05-06 08:24 | 20.32485 | -96.00591 | 32782 ft | 525 kts | 59° |
| 2026-05-06 08:24 | 20.34630 | -95.97443 | 32796 ft | 525 kts | 52° |
| 2026-05-06 08:25 | 20.38523 | -95.92454 | 32793 ft | 526 kts | 51° |
| 2026-05-06 08:25 | 20.43040 | -95.86300 | 32797 ft | 526 kts | 53° |
| 2026-05-06 08:26 | 20.47610 | -95.80207 | 32802 ft | 525 kts | 51° |
| 2026-05-06 08:26 | 20.52158 | -95.74096 | 32800 ft | 525 kts | 52° |
| 2026-05-06 08:27 | 20.56670 | -95.68020 | 32804 ft | 525 kts | 52° |
| 2026-05-06 08:27 | 20.61216 | -95.61917 | 32802 ft | 525 kts | 52° |
| 2026-05-06 08:28 | 20.65743 | -95.55804 | 32805 ft | 525 kts | 52° |
| 2026-05-06 08:28 | 20.70279 | -95.49700 | 32804 ft | 524 kts | 52° |
| 2026-05-06 08:29 | 20.74798 | -95.43589 | 32806 ft | 524 kts | 52° |
| 2026-05-06 08:29 | 20.79296 | -95.37516 | 32811 ft | 523 kts | 52° |
| 2026-05-06 08:30 | 20.83815 | -95.31399 | 32814 ft | 523 kts | 52° |
| 2026-05-06 08:30 | 20.88327 | -95.25289 | 32813 ft | 523 kts | 52° |
| 2026-05-06 08:31 | 20.92832 | -95.19180 | 32814 ft | 523 kts | 52° |
| 2026-05-06 08:31 | 20.97339 | -95.13063 | 32815 ft | 523 kts | 52° |
| 2026-05-06 08:32 | 21.01815 | -95.06980 | 32816 ft | 523 kts | 52° |
| 2026-05-06 08:32 | 21.06316 | -95.00856 | 32819 ft | 522 kts | 52° |
| 2026-05-06 08:33 | 21.10340 | -94.94382 | 32809 ft | 521 kts | 59° |
| 2026-05-06 08:33 | 21.14203 | -94.87845 | 32808 ft | 522 kts | 58° |
| 2026-05-06 08:34 | 21.20097 | -94.78018 | 32812 ft | 522 kts | 58° |
| 2026-05-06 08:35 | 21.24020 | -94.71452 | 32816 ft | 522 kts | 58° |
| 2026-05-06 08:35 | 21.27916 | -94.64922 | 32815 ft | 522 kts | 58° |
| 2026-05-06 08:36 | 21.31826 | -94.58349 | 32817 ft | 523 kts | 58° |
| 2026-05-06 08:36 | 21.35751 | -94.51758 | 32817 ft | 523 kts | 58° |
| 2026-05-06 08:37 | 21.39660 | -94.45171 | 32818 ft | 523 kts | 58° |
| 2026-05-06 08:37 | 21.43550 | -94.38620 | 32821 ft | 524 kts | 58° |
| 2026-05-06 08:38 | 21.47464 | -94.32013 | 32823 ft | 524 kts | 58° |
| 2026-05-06 08:38 | 21.51381 | -94.25398 | 32826 ft | 524 kts | 58° |
| 2026-05-06 08:39 | 21.55276 | -94.18809 | 32822 ft | 524 kts | 58° |
| 2026-05-06 08:39 | 21.59195 | -94.12174 | 32827 ft | 524 kts | 58° |
| 2026-05-06 08:40 | 21.63105 | -94.05544 | 32827 ft | 524 kts | 58° |
| 2026-05-06 08:40 | 21.67009 | -93.98918 | 32829 ft | 524 kts | 58° |
| 2026-05-06 08:41 | 21.70887 | -93.92327 | 32833 ft | 525 kts | 58° |
| 2026-05-06 08:41 | 21.74799 | -93.85670 | 32831 ft | 525 kts | 58° |
| 2026-05-06 08:42 | 21.78700 | -93.79024 | 32831 ft | 525 kts | 58° |
| 2026-05-06 08:42 | 21.82590 | -93.72371 | 32835 ft | 524 kts | 59° |
| 2026-05-06 08:43 | 21.86106 | -93.65544 | 32832 ft | 525 kts | 62° |
| 2026-05-06 08:43 | 21.89658 | -93.58675 | 32837 ft | 525 kts | 61° |
| 2026-05-06 08:44 | 21.93194 | -93.51786 | 32838 ft | 525 kts | 62° |
| 2026-05-06 08:44 | 21.96732 | -93.44903 | 32844 ft | 525 kts | 61° |
| 2026-05-06 08:45 | 22.00248 | -93.38049 | 32844 ft | 525 kts | 61° |
| 2026-05-06 08:45 | 22.03781 | -93.31151 | 32841 ft | 525 kts | 61° |
| 2026-05-06 08:46 | 22.07313 | -93.24249 | 32842 ft | 525 kts | 61° |
| 2026-05-06 08:46 | 22.10835 | -93.17355 | 32848 ft | 525 kts | 61° |
| 2026-05-06 08:47 | 22.14355 | -93.10457 | 32847 ft | 525 kts | 61° |
| 2026-05-06 08:47 | 22.17858 | -93.03583 | 32846 ft | 525 kts | 61° |
| 2026-05-06 08:48 | 22.21374 | -92.96676 | 32851 ft | 525 kts | 61° |
| 2026-05-06 08:48 | 22.24889 | -92.89760 | 32850 ft | 525 kts | 61° |
| 2026-05-06 08:49 | 22.28402 | -92.82839 | 32854 ft | 525 kts | 61° |
| 2026-05-06 08:49 | 22.31897 | -92.75944 | 32853 ft | 525 kts | 61° |
| 2026-05-06 08:50 | 22.35405 | -92.69014 | 32857 ft | 525 kts | 61° |
| 2026-05-06 08:50 | 22.38914 | -92.62072 | 32856 ft | 525 kts | 61° |
| 2026-05-06 08:51 | 22.42414 | -92.55140 | 32858 ft | 525 kts | 61° |
| 2026-05-06 08:51 | 22.45886 | -92.48230 | 32862 ft | 526 kts | 62° |
| 2026-05-06 08:52 | 22.49272 | -92.41213 | 32861 ft | 526 kts | 62° |
| 2026-05-06 08:52 | 22.52710 | -92.34222 | 32866 ft | 526 kts | 62° |
| 2026-05-06 08:53 | 22.56117 | -92.27214 | 32865 ft | 526 kts | 62° |
| 2026-05-06 08:53 | 22.59531 | -92.20212 | 32865 ft | 526 kts | 62° |
| 2026-05-06 08:54 | 22.62943 | -92.13195 | 32868 ft | 526 kts | 62° |
| 2026-05-06 08:54 | 22.66331 | -92.06217 | 32865 ft | 526 kts | 62° |
| 2026-05-06 08:55 | 22.69751 | -91.99197 | 32870 ft | 526 kts | 61° |
| 2026-05-06 08:55 | 22.73229 | -91.92207 | 32875 ft | 526 kts | 61° |
| 2026-05-06 08:56 | 22.76646 | -91.85235 | 32873 ft | 526 kts | 61° |
| 2026-05-06 08:56 | 22.80096 | -91.78241 | 32877 ft | 526 kts | 61° |
| 2026-05-06 08:57 | 22.83544 | -91.71237 | 32878 ft | 525 kts | 61° |
| 2026-05-06 08:57 | 22.86993 | -91.64242 | 32884 ft | 524 kts | 61° |
| 2026-05-06 08:58 | 22.90425 | -91.57259 | 32884 ft | 525 kts | 61° |
| 2026-05-06 08:58 | 22.93839 | -91.50310 | 32888 ft | 525 kts | 61° |
| 2026-05-06 08:59 | 22.97278 | -91.43292 | 32893 ft | 526 kts | 61° |
| 2026-05-06 08:59 | 23.00709 | -91.36267 | 32888 ft | 526 kts | 61° |
| 2026-05-06 09:00 | 23.04139 | -91.29242 | 32894 ft | 526 kts | 61° |
| 2026-05-06 09:00 | 23.07560 | -91.22219 | 32896 ft | 526 kts | 61° |
| 2026-05-06 09:01 | 23.10967 | -91.15220 | 32900 ft | 526 kts | 61° |
| 2026-05-06 09:01 | 23.14387 | -91.08180 | 32901 ft | 526 kts | 61° |
| 2026-05-06 09:02 | 23.17803 | -91.01140 | 32903 ft | 526 kts | 61° |
| 2026-05-06 09:02 | 23.21214 | -90.94102 | 32905 ft | 526 kts | 61° |
| 2026-05-06 09:03 | 23.24629 | -90.87044 | 32907 ft | 527 kts | 61° |
| 2026-05-06 09:03 | 23.28041 | -90.79981 | 32905 ft | 527 kts | 61° |
| 2026-05-06 09:04 | 23.31449 | -90.72919 | 32907 ft | 527 kts | 61° |
| 2026-05-06 09:04 | 23.34830 | -90.65905 | 32915 ft | 527 kts | 61° |
| 2026-05-06 09:05 | 23.38231 | -90.58837 | 32915 ft | 527 kts | 61° |
| 2026-05-06 09:05 | 23.41627 | -90.51770 | 32914 ft | 527 kts | 61° |
| 2026-05-06 09:06 | 23.45026 | -90.44687 | 32923 ft | 527 kts | 61° |
| 2026-05-06 09:06 | 23.48417 | -90.37609 | 32923 ft | 527 kts | 61° |
| 2026-05-06 09:07 | 23.51784 | -90.30569 | 32927 ft | 527 kts | 61° |
| 2026-05-06 09:07 | 23.55183 | -90.23453 | 32924 ft | 527 kts | 61° |
| 2026-05-06 09:08 | 23.58550 | -90.16392 | 32927 ft | 527 kts | 61° |
| 2026-05-06 09:08 | 23.61934 | -90.09287 | 32933 ft | 527 kts | 61° |
| 2026-05-06 09:09 | 23.65312 | -90.02182 | 32938 ft | 527 kts | 62° |
| 2026-05-06 09:09 | 23.68689 | -89.95070 | 32936 ft | 527 kts | 62° |
| 2026-05-06 09:10 | 23.72038 | -89.88006 | 32937 ft | 527 kts | 61° |
| 2026-05-06 09:10 | 23.75408 | -89.80888 | 32942 ft | 527 kts | 62° |
| 2026-05-06 09:11 | 23.78204 | -89.74977 | 32947 ft | 527 kts | 62° |
| 2026-05-06 09:11 | 23.81569 | -89.67855 | 32946 ft | 527 kts | 62° |
| 2026-05-06 09:12 | 23.84929 | -89.60733 | 32946 ft | 527 kts | 62° |
| 2026-05-06 09:12 | 23.88285 | -89.53610 | 32951 ft | 527 kts | 62° |
| 2026-05-06 09:13 | 23.91642 | -89.46473 | 32953 ft | 527 kts | 62° |
| 2026-05-06 09:13 | 23.94973 | -89.39380 | 32955 ft | 527 kts | 62° |
| 2026-05-06 09:14 | 23.98320 | -89.32244 | 32956 ft | 527 kts | 62° |
| 2026-05-06 09:14 | 24.01664 | -89.25103 | 32956 ft | 527 kts | 62° |
| 2026-05-06 09:15 | 24.05005 | -89.17957 | 32961 ft | 526 kts | 62° |
| 2026-05-06 09:15 | 24.08319 | -89.10858 | 32962 ft | 526 kts | 62° |
| 2026-05-06 09:16 | 24.11646 | -89.03720 | 32965 ft | 526 kts | 62° |
| 2026-05-06 09:16 | 24.14966 | -88.96580 | 32967 ft | 526 kts | 62° |
| 2026-05-06 09:17 | 24.18286 | -88.89433 | 32968 ft | 526 kts | 62° |
| 2026-05-06 09:17 | 24.21600 | -88.82284 | 32966 ft | 526 kts | 62° |
| 2026-05-06 09:18 | 24.24896 | -88.75167 | 32972 ft | 526 kts | 62° |
| 2026-05-06 09:18 | 24.28202 | -88.68017 | 32974 ft | 526 kts | 62° |
| 2026-05-06 09:19 | 24.31513 | -88.60842 | 32972 ft | 526 kts | 62° |
| 2026-05-06 09:19 | 24.34816 | -88.53676 | 32976 ft | 526 kts | 62° |
| 2026-05-06 09:20 | 24.38098 | -88.46544 | 32978 ft | 527 kts | 62° |
| 2026-05-06 09:20 | 24.41400 | -88.39357 | 32980 ft | 527 kts | 62° |
| 2026-05-06 09:21 | 24.44706 | -88.32150 | 32982 ft | 528 kts | 62° |
| 2026-05-06 09:21 | 24.47987 | -88.24988 | 32979 ft | 528 kts | 62° |
| 2026-05-06 09:22 | 24.51708 | -88.18089 | 32980 ft | 523 kts | 50° |
| 2026-05-06 09:22 | 24.56266 | -88.11830 | 32984 ft | 524 kts | 49° |
| 2026-05-06 09:23 | 24.60727 | -88.05470 | 32991 ft | 524 kts | 50° |
| 2026-05-06 09:23 | 24.65197 | -87.99201 | 32985 ft | 523 kts | 49° |
| 2026-05-06 09:24 | 24.69687 | -87.92854 | 32984 ft | 524 kts | 50° |
| 2026-05-06 09:24 | 24.74161 | -87.86526 | 32989 ft | 524 kts | 49° |
| 2026-05-06 09:25 | 24.78612 | -87.80234 | 32988 ft | 524 kts | 50° |
| 2026-05-06 09:25 | 24.83085 | -87.73886 | 32986 ft | 525 kts | 50° |
| 2026-05-06 09:26 | 24.87569 | -87.67531 | 32993 ft | 525 kts | 50° |
| 2026-05-06 09:26 | 24.92047 | -87.61161 | 32993 ft | 526 kts | 50° |
| 2026-05-06 09:27 | 24.96528 | -87.54789 | 32993 ft | 525 kts | 50° |
| 2026-05-06 09:27 | 25.01001 | -87.48412 | 32995 ft | 525 kts | 49° |
| 2026-05-06 09:28 | 25.05466 | -87.42043 | 32997 ft | 525 kts | 49° |
| 2026-05-06 09:28 | 25.09916 | -87.35686 | 33004 ft | 525 kts | 49° |
| 2026-05-06 09:29 | 25.14378 | -87.29305 | 33004 ft | 525 kts | 49° |
| 2026-05-06 09:29 | 25.18842 | -87.22911 | 33000 ft | 524 kts | 49° |
| 2026-05-06 09:30 | 25.23298 | -87.16521 | 33003 ft | 524 kts | 49° |
| 2026-05-06 09:30 | 25.27713 | -87.10180 | 33003 ft | 524 kts | 49° |
| 2026-05-06 09:31 | 25.32163 | -87.03781 | 33003 ft | 524 kts | 49° |
| 2026-05-06 09:31 | 25.36618 | -86.97367 | 33010 ft | 525 kts | 49° |
| 2026-05-06 09:32 | 25.41061 | -86.90960 | 33015 ft | 525 kts | 49° |
| 2026-05-06 09:32 | 25.45480 | -86.84579 | 33014 ft | 525 kts | 49° |
| 2026-05-06 09:33 | 25.49919 | -86.78160 | 33017 ft | 525 kts | 49° |
| 2026-05-06 09:33 | 25.54352 | -86.71742 | 33013 ft | 523 kts | 49° |
| 2026-05-06 09:34 | 25.58766 | -86.65343 | 33014 ft | 522 kts | 49° |
| 2026-05-06 09:34 | 25.63150 | -86.58980 | 33018 ft | 522 kts | 49° |
| 2026-05-06 09:35 | 25.67553 | -86.52577 | 33022 ft | 522 kts | 49° |
| 2026-05-06 09:35 | 25.71962 | -86.46159 | 33006 ft | 522 kts | 49° |
| 2026-05-06 09:36 | 25.76368 | -86.39737 | 33012 ft | 522 kts | 49° |
| 2026-05-06 09:36 | 25.80764 | -86.33319 | 33020 ft | 522 kts | 49° |
| 2026-05-06 09:37 | 25.85134 | -86.26931 | 33021 ft | 522 kts | 49° |
| 2026-05-06 09:37 | 25.89523 | -86.20505 | 33023 ft | 522 kts | 49° |
| 2026-05-06 09:38 | 25.93908 | -86.14079 | 33023 ft | 522 kts | 49° |
| 2026-05-06 09:38 | 25.98287 | -86.07649 | 33027 ft | 522 kts | 49° |
| 2026-05-06 09:39 | 26.02674 | -86.01201 | 33029 ft | 522 kts | 48° |
| 2026-05-06 09:39 | 26.06630 | -85.94470 | 33019 ft | 526 kts | 56° |
| 2026-05-06 09:40 | 26.10218 | -85.87350 | 33022 ft | 526 kts | 56° |
| 2026-05-06 09:40 | 26.15646 | -85.76738 | 33033 ft | 526 kts | 56° |
| 2026-05-06 09:41 | 26.19249 | -85.69636 | 33033 ft | 526 kts | 56° |
| 2026-05-06 09:41 | 26.22833 | -85.62588 | 33034 ft | 526 kts | 56° |
| 2026-05-06 09:42 | 26.26423 | -85.55492 | 33035 ft | 525 kts | 56° |
| 2026-05-06 09:42 | 26.30021 | -85.48389 | 33034 ft | 525 kts | 56° |
| 2026-05-06 09:43 | 26.33609 | -85.41281 | 33036 ft | 526 kts | 56° |
| 2026-05-06 09:43 | 26.37173 | -85.34217 | 33037 ft | 525 kts | 56° |
| 2026-05-06 09:44 | 26.40750 | -85.27111 | 33039 ft | 525 kts | 56° |
| 2026-05-06 09:44 | 26.44325 | -85.20001 | 33040 ft | 525 kts | 56° |
| 2026-05-06 09:45 | 26.47896 | -85.12885 | 33039 ft | 525 kts | 56° |
| 2026-05-06 09:45 | 26.51461 | -85.05771 | 33040 ft | 524 kts | 56° |
| 2026-05-06 09:46 | 26.54996 | -84.98704 | 33042 ft | 524 kts | 56° |
| 2026-05-06 09:46 | 26.58546 | -84.91598 | 33044 ft | 523 kts | 56° |
| 2026-05-06 09:47 | 26.62095 | -84.84482 | 33044 ft | 523 kts | 56° |
| 2026-05-06 09:47 | 26.65633 | -84.77376 | 33038 ft | 523 kts | 56° |
| 2026-05-06 09:48 | 26.69154 | -84.70292 | 33044 ft | 523 kts | 55° |
| 2026-05-06 09:48 | 26.72689 | -84.63170 | 33048 ft | 523 kts | 55° |
| 2026-05-06 09:49 | 26.76222 | -84.56039 | 33051 ft | 523 kts | 55° |
| 2026-05-06 09:49 | 26.79723 | -84.48961 | 33046 ft | 523 kts | 55° |
| 2026-05-06 09:50 | 26.83245 | -84.41830 | 33052 ft | 523 kts | 55° |
| 2026-05-06 09:50 | 26.86768 | -84.34685 | 33051 ft | 523 kts | 55° |
| 2026-05-06 09:51 | 26.90280 | -84.27549 | 33052 ft | 523 kts | 55° |
| 2026-05-06 09:51 | 26.93775 | -84.20438 | 33049 ft | 523 kts | 55° |
| 2026-05-06 09:52 | 26.97277 | -84.13299 | 33054 ft | 523 kts | 55° |
| 2026-05-06 09:52 | 27.00790 | -84.06129 | 33052 ft | 523 kts | 55° |
| 2026-05-06 09:53 | 27.04287 | -83.98975 | 33046 ft | 523 kts | 55° |
| 2026-05-06 09:53 | 27.07791 | -83.91800 | 33047 ft | 523 kts | 55° |
| 2026-05-06 09:54 | 27.11281 | -83.84639 | 33052 ft | 523 kts | 55° |
| 2026-05-06 09:54 | 27.14744 | -83.77521 | 33056 ft | 522 kts | 55° |
| 2026-05-06 09:55 | 27.18225 | -83.70356 | 33046 ft | 523 kts | 55° |
| 2026-05-06 09:55 | 27.21708 | -83.63172 | 33049 ft | 522 kts | 55° |
| 2026-05-06 09:56 | 27.25186 | -83.55990 | 33043 ft | 523 kts | 55° |
| 2026-05-06 09:56 | 27.28638 | -83.48849 | 33054 ft | 523 kts | 55° |
| 2026-05-06 09:57 | 27.32110 | -83.41652 | 33055 ft | 523 kts | 55° |
| 2026-05-06 09:57 | 27.35581 | -83.34446 | 33044 ft | 522 kts | 55° |
| 2026-05-06 09:58 | 27.39015 | -83.27306 | 33046 ft | 522 kts | 55° |
| 2026-05-06 09:58 | 27.42468 | -83.20114 | 33047 ft | 522 kts | 55° |
| 2026-05-06 09:59 | 27.45336 | -83.14130 | 33050 ft | 523 kts | 55° |
| 2026-05-06 09:59 | 27.48791 | -83.06911 | 33050 ft | 523 kts | 55° |
| 2026-05-06 10:00 | 27.52239 | -82.99694 | 33056 ft | 523 kts | 55° |
| 2026-05-06 10:00 | 27.55682 | -82.92477 | 33059 ft | 522 kts | 55° |
| 2026-05-06 10:01 | 27.59102 | -82.85294 | 33057 ft | 523 kts | 55° |
| 2026-05-06 10:01 | 27.62539 | -82.78063 | 33060 ft | 522 kts | 55° |
| 2026-05-06 10:02 | 27.65955 | -82.70865 | 33057 ft | 523 kts | 55° |
| 2026-05-06 10:02 | 27.69388 | -82.63615 | 33048 ft | 522 kts | 55° |
| 2026-05-06 10:03 | 27.72810 | -82.56381 | 33041 ft | 521 kts | 55° |
| 2026-05-06 10:03 | 27.76223 | -82.49152 | 33066 ft | 521 kts | 55° |
| 2026-05-06 10:04 | 27.79632 | -82.41915 | 33064 ft | 521 kts | 55° |
| 2026-05-06 10:04 | 27.83012 | -82.34732 | 33071 ft | 521 kts | 55° |
| 2026-05-06 10:05 | 27.86411 | -82.27496 | 33069 ft | 521 kts | 55° |
| 2026-05-06 10:05 | 27.89810 | -82.20244 | 33097 ft | 521 kts | 55° |
| 2026-05-06 10:06 | 27.93202 | -82.12997 | 33090 ft | 521 kts | 55° |
| 2026-05-06 10:06 | 27.96571 | -82.05786 | 33098 ft | 521 kts | 55° |
| 2026-05-06 10:07 | 27.99940 | -81.98533 | 33095 ft | 522 kts | 56° |
| 2026-05-06 10:07 | 28.03181 | -81.91140 | 33100 ft | 523 kts | 56° |
| 2026-05-06 10:08 | 28.06484 | -81.83802 | 33100 ft | 522 kts | 56° |
| 2026-05-06 10:08 | 28.09727 | -81.76488 | 33107 ft | 523 kts | 56° |
| 2026-05-06 10:09 | 28.13014 | -81.69095 | 33102 ft | 523 kts | 56° |
| 2026-05-06 10:09 | 28.16261 | -81.61781 | 33100 ft | 523 kts | 56° |
| 2026-05-06 10:10 | 28.19526 | -81.54397 | 33096 ft | 522 kts | 56° |
| 2026-05-06 10:10 | 28.22783 | -81.47034 | 33105 ft | 522 kts | 56° |
| 2026-05-06 10:11 | 28.26041 | -81.39641 | 33099 ft | 522 kts | 56° |
| 2026-05-06 10:11 | 28.29270 | -81.32314 | 33106 ft | 522 kts | 56° |
| 2026-05-06 10:12 | 28.32518 | -81.24920 | 33102 ft | 523 kts | 56° |
| 2026-05-06 10:12 | 28.35744 | -81.17568 | 33106 ft | 523 kts | 56° |
| 2026-05-06 10:13 | 28.38980 | -81.10177 | 33093 ft | 522 kts | 56° |
| 2026-05-06 10:13 | 28.42216 | -81.02773 | 33094 ft | 523 kts | 56° |
| 2026-05-06 10:14 | 28.45447 | -80.95366 | 33053 ft | 523 kts | 56° |
| 2026-05-06 10:14 | 28.48679 | -80.87945 | 33073 ft | 523 kts | 56° |
| 2026-05-06 10:15 | 28.51906 | -80.80520 | 33060 ft | 523 kts | 56° |
| 2026-05-06 10:15 | 28.55111 | -80.73134 | 33073 ft | 524 kts | 56° |
| 2026-05-06 10:16 | 28.58335 | -80.65689 | 33065 ft | 524 kts | 57° |
| 2026-05-06 10:16 | 28.61551 | -80.58246 | 33069 ft | 524 kts | 57° |
| 2026-05-06 10:17 | 28.64764 | -80.50800 | 33068 ft | 524 kts | 57° |
| 2026-05-06 10:17 | 28.67979 | -80.43332 | 33069 ft | 525 kts | 57° |
| 2026-05-06 10:18 | 28.71191 | -80.35859 | 33064 ft | 524 kts | 57° |
| 2026-05-06 10:18 | 28.74388 | -80.28408 | 33075 ft | 525 kts | 57° |
| 2026-05-06 10:19 | 28.77594 | -80.20918 | 33077 ft | 525 kts | 57° |
| 2026-05-06 10:19 | 28.80800 | -80.13419 | 33074 ft | 525 kts | 57° |
| 2026-05-06 10:20 | 28.83969 | -80.05986 | 33074 ft | 524 kts | 57° |
| 2026-05-06 10:20 | 28.87161 | -79.98490 | 33087 ft | 524 kts | 57° |
| 2026-05-06 10:21 | 28.90348 | -79.90990 | 33090 ft | 524 kts | 57° |
| 2026-05-06 10:21 | 28.93502 | -79.83551 | 33092 ft | 523 kts | 57° |
| 2026-05-06 10:22 | 28.96672 | -79.76064 | 33086 ft | 523 kts | 57° |
| 2026-05-06 10:22 | 28.99840 | -79.68564 | 33097 ft | 524 kts | 57° |
| 2026-05-06 10:23 | 29.02991 | -79.61092 | 33082 ft | 524 kts | 57° |
| 2026-05-06 10:23 | 29.06155 | -79.53574 | 33093 ft | 525 kts | 57° |
| 2026-05-06 10:24 | 29.09321 | -79.46037 | 33091 ft | 525 kts | 57° |
| 2026-05-06 10:24 | 29.12484 | -79.38491 | 33097 ft | 525 kts | 57° |
| 2026-05-06 10:25 | 29.15639 | -79.30951 | 33089 ft | 525 kts | 57° |
| 2026-05-06 10:25 | 29.18773 | -79.23447 | 33089 ft | 526 kts | 57° |
| 2026-05-06 10:26 | 29.21909 | -79.15877 | 33090 ft | 527 kts | 59° |
| 2026-05-06 10:26 | 29.24212 | -79.07803 | 33091 ft | 531 kts | 64° |
| 2026-05-06 10:27 | 29.26654 | -78.99785 | 33091 ft | 533 kts | 64° |
| 2026-05-06 10:27 | 29.29055 | -78.91787 | 33100 ft | 533 kts | 64° |
| 2026-05-06 10:28 | 29.31510 | -78.83745 | 33095 ft | 533 kts | 64° |
| 2026-05-06 10:28 | 29.33940 | -78.75763 | 33087 ft | 533 kts | 64° |
| 2026-05-06 10:29 | 29.36649 | -78.67916 | 32823 ft | 520 kts | 53° |
| 2026-05-06 10:29 | 29.38603 | -78.64521 | 32952 ft | 503 kts | 44° |
| 2026-05-06 10:29 | 29.40884 | -78.61523 | 33076 ft | 498 kts | 40° |
| 2026-05-06 10:30 | 29.45581 | -78.55552 | 33098 ft | 506 kts | 40° |
| 2026-05-06 10:30 | 29.50259 | -78.49532 | 33097 ft | 504 kts | 40° |
| 2026-05-06 10:31 | 29.54925 | -78.43574 | 33099 ft | 504 kts | 40° |
| 2026-05-06 10:31 | 29.59595 | -78.37565 | 33100 ft | 504 kts | 40° |
| 2026-05-06 10:32 | 29.64274 | -78.31555 | 33105 ft | 503 kts | 40° |
| 2026-05-06 10:32 | 29.68912 | -78.25580 | 33102 ft | 503 kts | 40° |
| 2026-05-06 10:33 | 29.73570 | -78.19574 | 33099 ft | 502 kts | 40° |
| 2026-05-06 10:33 | 29.78222 | -78.13565 | 33100 ft | 502 kts | 40° |
| 2026-05-06 10:34 | 29.82864 | -78.07560 | 33100 ft | 502 kts | 40° |
| 2026-05-06 10:34 | 29.87473 | -78.01589 | 33106 ft | 501 kts | 40° |
| 2026-05-06 10:35 | 29.92110 | -77.95573 | 33104 ft | 500 kts | 40° |
| 2026-05-06 10:35 | 29.96741 | -77.89555 | 33104 ft | 500 kts | 40° |
| 2026-05-06 10:36 | 30.01335 | -77.83577 | 33104 ft | 501 kts | 40° |
| 2026-05-06 10:36 | 30.05957 | -77.77552 | 33112 ft | 500 kts | 40° |
| 2026-05-06 10:37 | 30.10575 | -77.71525 | 33104 ft | 500 kts | 40° |
| 2026-05-06 10:37 | 30.15173 | -77.65512 | 33107 ft | 499 kts | 40° |
| 2026-05-06 10:38 | 30.19738 | -77.59536 | 33105 ft | 499 kts | 40° |
| 2026-05-06 10:38 | 30.24335 | -77.53506 | 33110 ft | 499 kts | 40° |
| 2026-05-06 10:39 | 30.28906 | -77.47503 | 33098 ft | 499 kts | 40° |
| 2026-05-06 10:39 | 30.33495 | -77.41466 | 33105 ft | 498 kts | 40° |
| 2026-05-06 10:40 | 30.38087 | -77.35416 | 33111 ft | 498 kts | 40° |
| 2026-05-06 10:40 | 30.42638 | -77.29411 | 33110 ft | 498 kts | 40° |
| 2026-05-06 10:41 | 30.47215 | -77.23362 | 33111 ft | 498 kts | 40° |
| 2026-05-06 10:41 | 30.51787 | -77.17312 | 33116 ft | 498 kts | 40° |
| 2026-05-06 10:42 | 30.56344 | -77.11271 | 33115 ft | 498 kts | 40° |
| 2026-05-06 10:42 | 30.60871 | -77.05261 | 33118 ft | 497 kts | 40° |
| 2026-05-06 10:43 | 30.65170 | -76.98888 | 33099 ft | 511 kts | 50° |
| 2026-05-06 10:44 | 30.69882 | -76.87591 | 33122 ft | 518 kts | 56° |
| 2026-05-06 10:44 | 30.72954 | -76.80061 | 33117 ft | 518 kts | 56° |
| 2026-05-06 10:45 | 30.76029 | -76.72468 | 33123 ft | 518 kts | 56° |
| 2026-05-06 10:45 | 30.79108 | -76.64876 | 33121 ft | 518 kts | 56° |
| 2026-05-06 10:46 | 30.82156 | -76.57330 | 33122 ft | 518 kts | 56° |
| 2026-05-06 10:46 | 30.85218 | -76.49740 | 33123 ft | 518 kts | 56° |
| 2026-05-06 10:47 | 30.88279 | -76.42136 | 33124 ft | 518 kts | 57° |
| 2026-05-06 10:47 | 30.91328 | -76.34546 | 33124 ft | 517 kts | 57° |
| 2026-05-06 10:48 | 30.94360 | -76.26983 | 33127 ft | 518 kts | 57° |
| 2026-05-06 10:48 | 30.96892 | -76.20652 | 33125 ft | 518 kts | 57° |
| 2026-05-06 10:49 | 30.99936 | -76.13028 | 33128 ft | 518 kts | 57° |
| 2026-05-06 10:49 | 31.02970 | -76.05414 | 33132 ft | 518 kts | 57° |
| 2026-05-06 10:50 | 31.06002 | -75.97789 | 33129 ft | 518 kts | 57° |
| 2026-05-06 10:50 | 31.09517 | -75.88928 | 33129 ft | 518 kts | 57° |
| 2026-05-06 10:51 | 31.12050 | -75.82530 | 33133 ft | 518 kts | 58° |
| 2026-05-06 10:51 | 31.15068 | -75.74890 | 33132 ft | 518 kts | 58° |
| 2026-05-06 10:52 | 31.18065 | -75.67289 | 33135 ft | 518 kts | 58° |
| 2026-05-06 10:52 | 31.21070 | -75.59649 | 33135 ft | 517 kts | 58° |
| 2026-05-06 10:53 | 31.24070 | -75.52007 | 33141 ft | 517 kts | 58° |
| 2026-05-06 10:53 | 31.27047 | -75.44408 | 33138 ft | 517 kts | 58° |
| 2026-05-06 10:54 | 31.30045 | -75.36739 | 33143 ft | 518 kts | 58° |
| 2026-05-06 10:54 | 31.33033 | -75.29076 | 33146 ft | 517 kts | 58° |
| 2026-05-06 10:55 | 31.36020 | -75.21405 | 33148 ft | 517 kts | 58° |
| 2026-05-06 10:55 | 31.38978 | -75.13786 | 33145 ft | 517 kts | 58° |
| 2026-05-06 10:56 | 31.41954 | -75.06108 | 33145 ft | 517 kts | 59° |
| 2026-05-06 10:56 | 31.44920 | -74.98437 | 33139 ft | 516 kts | 59° |
| 2026-05-06 10:57 | 31.47856 | -74.90828 | 33140 ft | 515 kts | 59° |
| 2026-05-06 10:57 | 31.50800 | -74.83182 | 33146 ft | 515 kts | 59° |
| 2026-05-06 10:58 | 31.53745 | -74.75515 | 33155 ft | 514 kts | 59° |
| 2026-05-06 10:58 | 31.56678 | -74.67864 | 33155 ft | 514 kts | 59° |
| 2026-05-06 10:59 | 31.59591 | -74.60248 | 33156 ft | 515 kts | 59° |
| 2026-05-06 10:59 | 31.62520 | -74.52575 | 33159 ft | 515 kts | 59° |
| 2026-05-06 11:00 | 31.65442 | -74.44903 | 33159 ft | 514 kts | 59° |
| 2026-05-06 11:00 | 31.68357 | -74.37231 | 33161 ft | 514 kts | 59° |
| 2026-05-06 11:01 | 31.71256 | -74.29585 | 33161 ft | 514 kts | 59° |
| 2026-05-06 11:01 | 31.74169 | -74.21886 | 33162 ft | 514 kts | 59° |
| 2026-05-06 11:02 | 31.77068 | -74.14207 | 33161 ft | 514 kts | 59° |
| 2026-05-06 11:02 | 31.79950 | -74.06556 | 33166 ft | 514 kts | 59° |
| 2026-05-06 11:03 | 31.82843 | -73.98855 | 33162 ft | 514 kts | 59° |
| 2026-05-06 11:03 | 31.85730 | -73.91157 | 33171 ft | 515 kts | 59° |
| 2026-05-06 11:04 | 31.88624 | -73.83425 | 33171 ft | 515 kts | 59° |
| 2026-05-06 11:04 | 31.91488 | -73.75749 | 33174 ft | 515 kts | 59° |
| 2026-05-06 11:05 | 31.94374 | -73.68002 | 33174 ft | 515 kts | 60° |
| 2026-05-06 11:05 | 31.97246 | -73.60272 | 33177 ft | 514 kts | 60° |
| 2026-05-06 11:06 | 32.00105 | -73.52564 | 33179 ft | 514 kts | 60° |
| 2026-05-06 11:06 | 32.02948 | -73.44879 | 33169 ft | 514 kts | 60° |
| 2026-05-06 11:07 | 32.05801 | -73.37150 | 33177 ft | 514 kts | 60° |
| 2026-05-06 11:07 | 32.08660 | -73.29387 | 33181 ft | 515 kts | 60° |
| 2026-05-06 11:08 | 32.11492 | -73.21680 | 33185 ft | 515 kts | 60° |
| 2026-05-06 11:08 | 32.14341 | -73.13909 | 33189 ft | 515 kts | 60° |
| 2026-05-06 11:09 | 32.17183 | -73.06140 | 33193 ft | 515 kts | 60° |
| 2026-05-06 11:09 | 32.20022 | -72.98360 | 33187 ft | 515 kts | 60° |
| 2026-05-06 11:10 | 32.22840 | -72.90618 | 33192 ft | 515 kts | 60° |
| 2026-05-06 11:10 | 32.25671 | -72.82827 | 33195 ft | 515 kts | 60° |
| 2026-05-06 11:11 | 32.28475 | -72.75089 | 33194 ft | 514 kts | 60° |
| 2026-05-06 11:11 | 32.31287 | -72.67311 | 33195 ft | 514 kts | 60° |
| 2026-05-06 11:12 | 32.34092 | -72.59538 | 33191 ft | 514 kts | 60° |
| 2026-05-06 11:12 | 32.36896 | -72.51747 | 33193 ft | 514 kts | 60° |
| 2026-05-06 11:13 | 32.39676 | -72.44005 | 33195 ft | 514 kts | 60° |
| 2026-05-06 11:13 | 32.42470 | -72.36206 | 33201 ft | 514 kts | 60° |
| 2026-05-06 11:14 | 32.45263 | -72.28392 | 33199 ft | 514 kts | 60° |
| 2026-05-06 11:14 | 32.48032 | -72.20623 | 33201 ft | 513 kts | 60° |
| 2026-05-06 11:15 | 32.50806 | -72.12827 | 33202 ft | 513 kts | 60° |
| 2026-05-06 11:15 | 32.53579 | -72.05014 | 33205 ft | 513 kts | 60° |
| 2026-05-06 11:16 | 32.56330 | -71.97243 | 33203 ft | 513 kts | 60° |
| 2026-05-06 11:16 | 32.59091 | -71.89428 | 33205 ft | 513 kts | 61° |
| 2026-05-06 11:17 | 32.61850 | -71.81598 | 33209 ft | 514 kts | 61° |
| 2026-05-06 11:17 | 32.64586 | -71.73816 | 33205 ft | 514 kts | 61° |
| 2026-05-06 11:18 | 32.67331 | -71.65987 | 33208 ft | 514 kts | 61° |
| 2026-05-06 11:18 | 32.70075 | -71.58146 | 33206 ft | 513 kts | 61° |
| 2026-05-06 11:19 | 32.72794 | -71.50355 | 33211 ft | 512 kts | 61° |
| 2026-05-06 11:19 | 32.75520 | -71.42527 | 33211 ft | 512 kts | 61° |
| 2026-05-06 11:20 | 32.78240 | -71.34699 | 33207 ft | 512 kts | 61° |
| 2026-05-06 11:20 | 32.80935 | -71.26919 | 33219 ft | 511 kts | 61° |
| 2026-05-06 11:21 | 32.83644 | -71.19086 | 33218 ft | 511 kts | 61° |
| 2026-05-06 11:21 | 32.86345 | -71.11254 | 33214 ft | 511 kts | 61° |
| 2026-05-06 11:22 | 32.89024 | -71.03466 | 33203 ft | 511 kts | 61° |
| 2026-05-06 11:22 | 32.91716 | -70.95626 | 33213 ft | 512 kts | 61° |
| 2026-05-06 11:23 | 32.94403 | -70.87775 | 33210 ft | 512 kts | 61° |
| 2026-05-06 11:23 | 32.97090 | -70.79909 | 33218 ft | 512 kts | 61° |
| 2026-05-06 11:24 | 32.99767 | -70.72054 | 33212 ft | 511 kts | 61° |
| 2026-05-06 11:24 | 33.02435 | -70.64205 | 33212 ft | 511 kts | 61° |
| 2026-05-06 11:25 | 33.05095 | -70.56358 | 33210 ft | 511 kts | 61° |
| 2026-05-06 11:25 | 33.07747 | -70.48515 | 33216 ft | 509 kts | 61° |
| 2026-05-06 11:26 | 33.10373 | -70.40736 | 33216 ft | 508 kts | 61° |
| 2026-05-06 11:26 | 33.13015 | -70.32888 | 33208 ft | 509 kts | 61° |
| 2026-05-06 11:27 | 33.15644 | -70.25054 | 33215 ft | 509 kts | 61° |
| 2026-05-06 11:27 | 33.18270 | -70.17214 | 33213 ft | 508 kts | 61° |
| 2026-05-06 11:28 | 33.20876 | -70.09413 | 33221 ft | 509 kts | 61° |
| 2026-05-06 11:28 | 33.23493 | -70.01562 | 33215 ft | 508 kts | 61° |
| 2026-05-06 11:29 | 33.26108 | -69.93697 | 33217 ft | 508 kts | 61° |
| 2026-05-06 11:29 | 33.28718 | -69.85827 | 33213 ft | 508 kts | 62° |
| 2026-05-06 11:30 | 33.31924 | -69.78502 | 33201 ft | 492 kts | 46° |
| 2026-05-06 11:30 | 33.36022 | -69.71946 | 33214 ft | 493 kts | 46° |
| 2026-05-06 11:31 | 33.40106 | -69.65326 | 33222 ft | 493 kts | 46° |
| 2026-05-06 11:31 | 33.44191 | -69.58740 | 33202 ft | 494 kts | 46° |
| 2026-05-06 11:32 | 33.48279 | -69.52110 | 33212 ft | 494 kts | 47° |
| 2026-05-06 11:32 | 33.52373 | -69.45472 | 33210 ft | 494 kts | 47° |
| 2026-05-06 11:33 | 33.56435 | -69.38869 | 33215 ft | 495 kts | 47° |
| 2026-05-06 11:33 | 33.60520 | -69.32217 | 33223 ft | 494 kts | 47° |
| 2026-05-06 11:34 | 33.64600 | -69.25564 | 33217 ft | 495 kts | 47° |
| 2026-05-06 11:34 | 33.68660 | -69.18926 | 33221 ft | 495 kts | 47° |
| 2026-05-06 11:35 | 33.72750 | -69.12232 | 33224 ft | 496 kts | 47° |
| 2026-05-06 11:35 | 33.76829 | -69.05540 | 33218 ft | 495 kts | 47° |
| 2026-05-06 11:36 | 33.80870 | -68.98900 | 33220 ft | 495 kts | 47° |
| 2026-05-06 11:36 | 33.84938 | -68.92204 | 33225 ft | 495 kts | 47° |
| 2026-05-06 11:37 | 33.89010 | -68.85487 | 33222 ft | 496 kts | 47° |
| 2026-05-06 11:37 | 33.92387 | -68.79909 | 33221 ft | 496 kts | 47° |
| 2026-05-06 11:38 | 33.97106 | -68.72098 | 33224 ft | 496 kts | 47° |
| 2026-05-06 11:38 | 34.00501 | -68.66468 | 33219 ft | 496 kts | 47° |
| 2026-05-06 11:39 | 34.04557 | -68.59732 | 33223 ft | 496 kts | 47° |
| 2026-05-06 11:39 | 34.08581 | -68.53034 | 33225 ft | 495 kts | 48° |
| 2026-05-06 11:40 | 34.12629 | -68.46286 | 33225 ft | 495 kts | 48° |
| 2026-05-06 11:40 | 34.16667 | -68.39541 | 33225 ft | 495 kts | 48° |
| 2026-05-06 11:41 | 34.20673 | -68.32837 | 33229 ft | 495 kts | 48° |
| 2026-05-06 11:41 | 34.24701 | -68.26083 | 33221 ft | 494 kts | 48° |
| 2026-05-06 11:42 | 34.28719 | -68.19333 | 33226 ft | 494 kts | 48° |
| 2026-05-06 11:42 | 34.32732 | -68.12581 | 33226 ft | 494 kts | 48° |
| 2026-05-06 11:43 | 34.36716 | -68.05864 | 33229 ft | 493 kts | 48° |
| 2026-05-06 11:43 | 34.40719 | -67.99102 | 33229 ft | 493 kts | 48° |
| 2026-05-06 11:44 | 34.46714 | -67.88951 | 33236 ft | 493 kts | 48° |
| 2026-05-06 11:44 | 34.50697 | -67.82191 | 33234 ft | 492 kts | 48° |
| 2026-05-06 11:45 | 34.54654 | -67.75463 | 33234 ft | 492 kts | 49° |
| 2026-05-06 11:45 | 34.58627 | -67.68692 | 33234 ft | 491 kts | 49° |
| 2026-05-06 11:46 | 34.62561 | -67.61978 | 33233 ft | 490 kts | 49° |
| 2026-05-06 11:46 | 34.66512 | -67.55223 | 33235 ft | 489 kts | 49° |